Time;durP1;ratioP1;P1;durP2;ratioP2;P2;SDS_P1;SDS_P2;PMS_P1;PMS_P2;Temp;Humidity;BMP_temperature;BMP_pressure;BME280_temperature;BME280_humidity;BME280_pressure;Samples;Min_cycle;Max_cycle;Signal;HPM_P1;HPM_P2
2021/06/28 00:01:40;;;;;;;0.17;0.17;;;19.70;1.00;;;;;;5096540;28;20071;-80
2021/06/28 00:04:06;;;;;;;0.10;0.10;;;19.70;1.00;;;;;;5095237;28;20059;-81
2021/06/28 00:06:32;;;;;;;0.10;0.10;;;19.70;1.00;;;;;;5096663;28;20044;-80
2021/06/28 00:08:58;;;;;;;0.10;0.10;;;19.70;1.00;;;;;;5096848;28;20123;-81
2021/06/28 00:11:24;;;;;;;0.10;0.10;;;19.70;1.00;;;;;;5095034;28;20123;-80
2021/06/28 00:13:53;;;;;;;0.10;0.10;;;19.70;1.00;;;;;;5096210;28;20043;-81
2021/06/28 00:16:19;;;;;;;0.10;0.10;;;19.70;1.00;;;;;;5095138;28;20038;-81
2021/06/28 00:18:45;;;;;;;0.10;0.10;;;19.70;1.00;;;;;;5095267;28;20123;-81
2021/06/28 00:21:11;;;;;;;0.10;0.10;;;19.60;1.00;;;;;;5095064;28;20036;-81
2021/06/28 00:23:37;;;;;;;0.10;0.10;;;19.60;1.00;;;;;;5096321;28;20048;-80
2021/06/28 00:26:04;;;;;;;0.13;0.13;;;19.50;1.00;;;;;;5094817;28;20035;-81
2021/06/28 00:28:30;;;;;;;0.20;0.20;;;19.40;1.00;;;;;;5094928;28;20131;-80
2021/06/28 00:30:57;;;;;;;0.10;0.10;;;19.40;1.00;;;;;;5095857;28;20487;-80
2021/06/28 00:33:23;;;;;;;0.10;0.10;;;19.40;1.00;;;;;;5096494;28;20071;-81
2021/06/28 00:35:49;;;;;;;0.10;0.10;;;19.40;1.00;;;;;;5095797;28;20503;-81
2021/06/28 00:38:16;;;;;;;0.20;0.20;;;19.30;1.00;;;;;;5095627;28;20049;-81
2021/06/28 00:40:43;;;;;;;0.32;0.32;;;19.30;1.00;;;;;;5094897;28;20036;-81
2021/06/28 00:43:09;;;;;;;0.20;0.20;;;19.20;1.00;;;;;;5095982;28;20490;-81
2021/06/28 00:45:40;;;;;;;0.10;0.10;;;19.20;1.00;;;;;;5094575;28;20028;-81
2021/06/28 00:48:14;;;;;;;0.10;0.10;;;19.20;1.00;;;;;;5096022;28;20028;-81
2021/06/28 00:50:48;;;;;;;0.10;0.10;;;19.20;1.00;;;;;;5095351;28;20545;-80
2021/06/28 00:53:17;;;;;;;0.10;0.10;;;19.20;1.00;;;;;;5095886;28;20097;-81
2021/06/28 00:55:44;;;;;;;0.10;0.10;;;19.10;1.00;;;;;;5095553;28;20090;-80
2021/06/28 00:58:10;;;;;;;0.10;0.10;;;19.10;1.00;;;;;;5095739;28;20062;-81
2021/06/28 01:00:37;;;;;;;0.20;0.20;;;19.10;1.00;;;;;;5094117;28;20144;-81
2021/06/28 01:03:03;;;;;;;0.10;0.10;;;19.10;1.00;;;;;;5095505;28;20070;-80
2021/06/28 01:05:32;;;;;;;0.10;0.10;;;19.10;1.00;;;;;;5094076;28;20040;-81
2021/06/28 01:08:03;;;;;;;0.38;0.38;;;19.10;1.00;;;;;;5095187;28;20123;-81
2021/06/28 01:10:30;;;;;;;0.10;0.10;;;19.00;1.00;;;;;;5095662;28;20044;-80
2021/06/28 01:12:56;;;;;;;0.10;0.10;;;19.00;1.00;;;;;;5095694;28;20043;-81
2021/06/28 01:15:23;;;;;;;0.10;0.10;;;18.90;1.00;;;;;;5094031;28;20043;-81
2021/06/28 01:17:49;;;;;;;0.10;0.10;;;18.90;1.00;;;;;;5095120;28;20482;-80
2021/06/28 01:20:22;;;;;;;0.10;0.10;;;18.80;1.00;;;;;;5093492;28;20044;-81
2021/06/28 01:22:51;;;;;;;0.10;0.10;;;18.90;1.00;;;;;;5095335;28;20123;-81
2021/06/28 01:25:20;;;;;;;0.10;0.10;;;18.90;1.00;;;;;;5095384;28;20043;-80
2021/06/28 01:27:47;;;;;;;0.10;0.10;;;18.90;1.00;;;;;;5095096;28;20518;-81
2021/06/28 01:30:20;;;;;;;0.10;0.10;;;18.80;1.00;;;;;;5095007;28;20540;-81
2021/06/28 01:32:47;;;;;;;0.10;0.10;;;18.80;1.00;;;;;;5095692;28;20093;-81
2021/06/28 01:35:14;;;;;;;0.10;0.10;;;18.80;1.00;;;;;;5094657;28;20047;-81
2021/06/28 01:37:40;;;;;;;0.25;0.25;;;18.70;1.00;;;;;;5095157;28;20524;-81
2021/06/28 01:40:09;;;;;;;0.10;0.10;;;18.70;1.00;;;;;;5095131;28;20490;-80
2021/06/28 01:42:36;;;;;;;0.10;0.10;;;18.70;1.00;;;;;;5094954;28;20039;-81
2021/06/28 01:45:13;;;;;;;0.10;0.10;;;18.60;1.00;;;;;;5094903;28;20039;-80
2021/06/28 01:47:40;;;;;;;0.10;0.10;;;18.70;1.00;;;;;;5094864;28;20036;-80
2021/06/28 01:50:08;;;;;;;0.30;0.30;;;18.60;1.00;;;;;;5094711;28;20044;-80
2021/06/28 01:52:34;;;;;;;0.10;0.10;;;18.60;1.00;;;;;;5094786;28;20043;-80
2021/06/28 01:55:02;;;;;;;0.10;0.10;;;18.50;1.00;;;;;;5094759;28;20062;-81
2021/06/28 01:57:28;;;;;;;0.10;0.10;;;18.50;1.00;;;;;;5094027;28;20096;-80
2021/06/28 01:59:54;;;;;;;0.10;0.10;;;18.50;1.00;;;;;;5094918;28;20063;-80
2021/06/28 02:02:20;;;;;;;0.10;0.10;;;18.40;1.00;;;;;;5094991;28;20104;-81
2021/06/28 02:04:47;;;;;;;0.10;0.10;;;18.40;1.00;;;;;;5094934;28;20436;-81
2021/06/28 02:07:14;;;;;;;0.10;0.10;;;18.40;1.00;;;;;;5095490;28;20043;-81
2021/06/28 02:09:40;;;;;;;0.25;0.25;;;18.40;1.00;;;;;;5094865;28;20044;-81
2021/06/28 02:12:07;;;;;;;0.10;0.10;;;18.40;1.00;;;;;;5094440;28;20397;-81
2021/06/28 02:14:34;;;;;;;0.65;0.32;;;18.30;1.00;;;;;;5094580;28;20040;-80
2021/06/28 02:17:00;;;;;;;0.10;0.10;;;18.30;1.40;;;;;;5094988;28;20123;-81
2021/06/28 02:19:26;;;;;;;0.10;0.10;;;18.30;1.00;;;;;;5094591;28;20098;-81
2021/06/28 02:21:52;;;;;;;0.10;0.10;;;18.30;1.00;;;;;;5095401;28;20043;-81
2021/06/28 02:24:18;;;;;;;0.10;0.10;;;18.30;1.00;;;;;;5093196;28;20089;-81
2021/06/28 02:26:45;;;;;;;0.10;0.10;;;18.30;1.00;;;;;;5094932;28;20032;-81
2021/06/28 02:29:12;;;;;;;0.10;0.10;;;18.30;1.00;;;;;;5093685;28;20040;-80
2021/06/28 02:31:38;;;;;;;0.20;0.20;;;18.30;1.00;;;;;;5094688;28;20071;-81
2021/06/28 02:34:04;;;;;;;0.10;0.10;;;18.30;1.00;;;;;;5094508;28;20040;-81
2021/06/28 02:36:30;;;;;;;0.10;0.10;;;18.20;1.00;;;;;;5094646;28;20063;-81
2021/06/28 02:38:57;;;;;;;0.10;0.10;;;18.20;1.00;;;;;;5093078;28;20127;-80
2021/06/28 02:41:24;;;;;;;0.20;0.20;;;18.20;1.00;;;;;;5094659;28;20044;-81
2021/06/28 02:43:52;;;;;;;0.20;0.20;;;18.20;1.00;;;;;;5094823;28;20078;-81
2021/06/28 02:46:18;;;;;;;0.10;0.10;;;18.30;1.00;;;;;;5094571;28;20039;-81
2021/06/28 02:48:44;;;;;;;0.20;0.20;;;18.30;1.00;;;;;;5093589;28;20036;-81
2021/06/28 02:51:13;;;;;;;0.10;0.10;;;18.30;1.00;;;;;;5093144;28;20123;-80
2021/06/28 02:53:39;;;;;;;0.10;0.10;;;18.20;1.00;;;;;;5094771;28;20044;-81
2021/06/28 02:56:19;;;;;;;0.10;0.10;;;18.20;1.00;;;;;;5093130;28;20039;-81
2021/06/28 02:58:54;;;;;;;0.10;0.10;;;18.20;1.00;;;;;;5094485;28;20047;-80
2021/06/28 03:01:22;;;;;;;0.10;0.10;;;18.20;1.00;;;;;;5093187;28;20073;-81
2021/06/28 03:03:49;;;;;;;0.10;0.10;;;18.20;1.00;;;;;;5094254;28;20502;-80
2021/06/28 03:06:15;;;;;;;0.10;0.10;;;18.10;1.00;;;;;;5094384;28;20109;-81
2021/06/28 03:08:43;;;;;;;0.10;0.10;;;18.10;1.00;;;;;;5093364;28;20479;-81
2021/06/28 03:11:13;;;;;;;0.10;0.10;;;18.10;1.00;;;;;;5097979;28;20039;-81
2021/06/28 03:13:38;;;;;;;0.10;0.10;;;18.00;1.00;;;;;;5097701;28;20561;-81
2021/06/28 03:16:05;;;;;;;0.10;0.10;;;18.00;1.00;;;;;;5096698;28;20063;-81
2021/06/28 03:18:33;;;;;;;0.10;0.10;;;18.00;1.00;;;;;;5097866;28;20123;-81
2021/06/28 03:20:59;;;;;;;0.10;0.10;;;18.00;1.00;;;;;;5097684;28;20047;-81
2021/06/28 03:23:25;;;;;;;0.10;0.10;;;17.90;1.00;;;;;;5097941;28;20483;-81
2021/06/28 03:25:51;;;;;;;0.10;0.10;;;17.90;1.00;;;;;;5096529;28;20032;-81
2021/06/28 03:28:17;;;;;;;0.10;0.10;;;17.90;1.00;;;;;;5097566;28;20479;-81
2021/06/28 03:30:43;;;;;;;0.10;0.10;;;17.90;1.00;;;;;;5097479;28;20042;-81
2021/06/28 03:33:10;;;;;;;0.10;0.10;;;17.70;1.00;;;;;;5096360;28;20048;-81
2021/06/28 03:35:36;;;;;;;0.10;0.10;;;17.70;1.00;;;;;;5096071;28;20471;-81
2021/06/28 03:38:02;;;;;;;0.10;0.10;;;17.60;1.00;;;;;;5097212;28;20181;-80
2021/06/28 03:40:32;;;;;;;0.10;0.10;;;17.60;1.00;;;;;;5097592;28;20547;-81
2021/06/28 03:43:02;;;;;;;0.10;0.10;;;17.50;1.00;;;;;;5097495;28;20047;-81
2021/06/28 03:45:28;;;;;;;0.10;0.10;;;17.50;1.00;;;;;;5097561;28;20079;-81
2021/06/28 03:47:54;;;;;;;0.10;0.10;;;17.50;1.00;;;;;;5097324;28;20067;-81
2021/06/28 03:50:20;;;;;;;0.10;0.10;;;17.40;1.00;;;;;;5096899;28;20390;-81
2021/06/28 03:52:46;;;;;;;0.10;0.10;;;17.40;1.00;;;;;;5097261;28;20123;-80
2021/06/28 03:55:12;;;;;;;0.10;0.10;;;17.40;1.00;;;;;;5097257;28;20051;-80
2021/06/28 03:57:38;;;;;;;0.10;0.10;;;17.30;1.00;;;;;;5095881;28;20028;-80
2021/06/28 04:00:13;;;;;;;0.10;0.10;;;17.30;1.00;;;;;;5097167;28;20047;-80
2021/06/28 04:02:41;;;;;;;0.10;0.10;;;17.30;1.00;;;;;;5096776;28;20119;-80
2021/06/28 04:05:09;;;;;;;0.10;0.10;;;17.10;1.00;;;;;;5096523;28;20044;-80
2021/06/28 04:07:35;;;;;;;0.10;0.10;;;17.20;1.00;;;;;;5097115;28;20036;-80
2021/06/28 04:10:03;;;;;;;0.10;0.10;;;17.20;1.00;;;;;;5096330;28;20050;-81
2021/06/28 04:12:29;;;;;;;0.10;0.10;;;17.10;1.00;;;;;;5095282;28;20036;-81
2021/06/28 04:14:55;;;;;;;0.10;0.10;;;17.20;1.00;;;;;;5096865;28;20097;-81
2021/06/28 04:17:21;;;;;;;0.10;0.10;;;17.00;1.00;;;;;;5095363;28;20028;-81
2021/06/28 04:19:47;;;;;;;0.10;0.10;;;17.00;1.00;;;;;;5096347;28;20047;-81
2021/06/28 04:22:13;;;;;;;0.10;0.10;;;17.00;1.00;;;;;;5095070;28;20036;-81
2021/06/28 04:24:39;;;;;;;0.10;0.10;;;17.10;1.00;;;;;;5096289;28;20040;-81
2021/06/28 04:27:05;;;;;;;0.10;0.10;;;17.10;1.00;;;;;;5096885;28;20039;-82
2021/06/28 04:29:31;;;;;;;0.10;0.10;;;17.10;1.00;;;;;;5094347;28;20036;-81
2021/06/28 04:31:57;;;;;;;0.10;0.10;;;17.00;1.00;;;;;;5096256;28;20040;-81
2021/06/28 04:34:23;;;;;;;0.10;0.10;;;17.00;1.00;;;;;;5095717;28;20406;-81
2021/06/28 04:36:49;;;;;;;0.10;0.10;;;17.10;1.00;;;;;;5095819;28;20536;-81
2021/06/28 04:39:14;;;;;;;0.10;0.10;;;17.10;1.00;;;;;;5094521;28;20032;-81
2021/06/28 04:41:40;;;;;;;0.10;0.10;;;17.10;1.00;;;;;;5095776;28;20111;-81
2021/06/28 04:44:06;;;;;;;0.10;0.10;;;17.10;1.00;;;;;;5093341;28;20126;-81
2021/06/28 04:46:32;;;;;;;0.10;0.10;;;17.10;1.00;;;;;;5094961;28;20028;-82
2021/06/28 04:48:58;;;;;;;0.10;0.10;;;17.10;1.00;;;;;;5094537;28;20360;-82
2021/06/28 04:51:27;;;;;;;0.10;0.10;;;17.10;1.00;;;;;;5092439;28;20040;-82
2021/06/28 04:53:53;;;;;;;0.10;0.10;;;17.10;1.00;;;;;;5092517;28;20044;-78
2021/06/28 04:56:18;;;;;;;0.10;0.10;;;17.10;1.00;;;;;;5094340;28;20040;-82
2021/06/28 04:58:44;;;;;;;0.10;0.10;;;17.20;1.00;;;;;;5094789;28;20036;-79
2021/06/28 05:01:10;;;;;;;0.10;0.10;;;17.10;1.00;;;;;;5092854;28;20104;-81
2021/06/28 05:03:36;;;;;;;0.10;0.10;;;17.10;1.00;;;;;;5094265;28;20040;-76
2021/06/28 05:06:02;;;;;;;0.10;0.10;;;17.00;1.00;;;;;;5095533;28;20154;-81
2021/06/28 05:08:27;;;;;;;0.20;0.20;;;17.00;1.00;;;;;;5094852;28;20537;-81
2021/06/28 05:10:53;;;;;;;0.10;0.10;;;17.00;1.00;;;;;;5095651;28;20089;-81
2021/06/28 05:13:19;;;;;;;0.88;0.32;;;17.10;1.00;;;;;;5094331;28;20039;-81
2021/06/28 05:15:45;;;;;;;0.10;0.10;;;17.10;1.00;;;;;;5095591;28;20173;-82
2021/06/28 05:18:11;;;;;;;0.10;0.10;;;17.10;1.00;;;;;;5095247;28;20487;-81
2021/06/28 05:20:37;;;;;;;0.10;0.10;;;17.10;1.00;;;;;;5095146;28;20040;-80
2021/06/28 05:23:03;;;;;;;0.10;0.10;;;17.20;1.00;;;;;;5095111;28;20127;-81
2021/06/28 05:25:28;;;;;;;0.10;0.10;;;17.20;1.00;;;;;;5095470;28;20024;-81
2021/06/28 05:27:54;;;;;;;0.10;0.10;;;17.20;1.00;;;;;;5095362;28;20139;-82
2021/06/28 05:30:20;;;;;;;0.10;0.10;;;17.10;1.00;;;;;;5095363;28;20115;-81
2021/06/28 05:32:46;;;;;;;0.10;0.10;;;17.10;1.00;;;;;;5094352;28;20040;-81
2021/06/28 05:35:12;;;;;;;0.10;0.10;;;17.10;1.00;;;;;;5094894;28;20043;-81
2021/06/28 05:37:39;;;;;;;0.10;0.10;;;17.20;1.00;;;;;;5095228;28;20085;-77
2021/06/28 05:40:07;;;;;;;0.10;0.10;;;17.20;1.00;;;;;;5093894;28;20094;-78
2021/06/28 05:42:34;;;;;;;0.10;0.10;;;17.20;1.00;;;;;;5094903;28;20040;-80
2021/06/28 05:44:59;;;;;;;0.10;0.10;;;17.30;1.00;;;;;;5093864;28;20032;-80
2021/06/28 05:47:25;;;;;;;3.60;0.90;;;17.40;1.00;;;;;;5094934;28;20042;-81
2021/06/28 05:49:58;;;;;;;0.10;0.10;;;17.40;1.00;;;;;;5094835;28;20063;-83
2021/06/28 05:52:24;;;;;;;0.10;0.10;;;17.50;1.00;;;;;;5094034;28;20040;-83
2021/06/28 05:54:51;;;;;;;0.10;0.10;;;17.50;1.00;;;;;;5094719;28;20467;-83
2021/06/28 05:57:24;;;;;;;0.20;0.20;;;17.50;1.00;;;;;;5094802;28;20032;-83
2021/06/28 05:59:50;;;;;;;0.10;0.10;;;17.50;1.00;;;;;;5095089;28;20113;-83
2021/06/28 06:02:18;;;;;;;0.10;0.10;;;17.50;1.00;;;;;;5093018;28;20056;-83
2021/06/28 06:04:45;;;;;;;0.10;0.10;;;17.50;1.00;;;;;;5093146;28;20471;-83
2021/06/28 06:07:12;;;;;;;0.10;0.10;;;17.40;1.00;;;;;;5094672;28;20040;-83
2021/06/28 06:09:38;;;;;;;0.10;0.10;;;17.30;1.00;;;;;;5094374;28;20032;-82
2021/06/28 06:12:05;;;;;;;0.10;0.10;;;17.30;1.00;;;;;;5094586;28;20510;-81
2021/06/28 06:14:31;;;;;;;0.10;0.10;;;17.40;1.00;;;;;;5094493;28;20036;-83
2021/06/28 06:16:57;;;;;;;0.10;0.10;;;17.40;1.00;;;;;;5094848;28;20039;-83
2021/06/28 06:19:24;;;;;;;0.10;0.10;;;17.40;1.00;;;;;;5093293;28;20398;-83
2021/06/28 06:21:50;;;;;;;0.10;0.10;;;17.60;1.00;;;;;;5094513;28;20487;-83
2021/06/28 06:24:17;;;;;;;0.10;0.10;;;17.70;1.00;;;;;;5094185;28;20387;-83
2021/06/28 06:26:43;;;;;;;0.10;0.10;;;17.80;1.00;;;;;;5093170;28;20035;-82
2021/06/28 06:29:08;;;;;;;0.10;0.10;;;17.80;1.00;;;;;;5093730;28;20051;-83
2021/06/28 06:31:34;;;;;;;0.10;0.10;;;17.80;1.00;;;;;;5093059;28;20040;-83
2021/06/28 06:34:00;;;;;;;0.10;0.10;;;17.70;1.00;;;;;;5094392;28;20034;-83
2021/06/28 06:36:26;;;;;;;0.10;0.10;;;17.80;1.00;;;;;;5093083;28;20084;-83
2021/06/28 06:38:52;;;;;;;0.10;0.10;;;17.90;1.00;;;;;;5093650;28;20054;-83
2021/06/28 06:41:18;;;;;;;0.10;0.10;;;18.00;1.00;;;;;;5093575;28;20040;-83
2021/06/28 06:43:44;;;;;;;0.25;0.25;;;18.00;1.00;;;;;;5094962;28;20032;-83
2021/06/28 06:46:10;;;;;;;0.20;0.20;;;18.10;1.00;;;;;;5098277;28;20043;-83
2021/06/28 06:48:36;;;;;;;0.38;0.38;;;18.10;1.00;;;;;;5098233;28;20035;-83
2021/06/28 06:51:02;;;;;;;0.10;0.10;;;18.20;1.00;;;;;;5098096;28;20040;-83
2021/06/28 06:53:28;;;;;;;0.10;0.10;;;18.30;1.00;;;;;;5097704;28;20036;-83
2021/06/28 06:55:54;;;;;;;0.10;0.10;;;18.40;1.00;;;;;;5098099;28;20414;-83
2021/06/28 06:58:20;;;;;;;0.10;0.10;;;18.50;1.00;;;;;;5096973;28;20028;-83
2021/06/28 07:00:45;;;;;;;0.13;0.13;;;18.60;1.00;;;;;;5098856;28;20057;-83
2021/06/28 07:03:11;;;;;;;0.10;0.10;;;18.80;1.00;;;;;;5097964;28;20051;-83
2021/06/28 07:05:37;;;;;;;0.10;0.10;;;18.90;1.00;;;;;;5096694;28;20032;-83
2021/06/28 07:08:04;;;;;;;0.10;0.10;;;19.00;1.00;;;;;;5097666;28;20036;-83
2021/06/28 07:10:30;;;;;;;0.10;0.10;;;19.10;1.00;;;;;;5098178;28;20040;-83
2021/06/28 07:12:56;;;;;;;0.10;0.10;;;20.20;1.00;;;;;;5098315;28;20040;-83
2021/06/28 07:15:23;;;;;;;0.10;0.10;;;21.40;1.00;;;;;;5097717;28;20364;-82
2021/06/28 07:17:49;;;;;;;0.10;0.10;;;23.60;1.00;;;;;;5097694;28;20039;-82
2021/06/28 07:20:18;;;;;;;0.10;0.10;;;23.00;1.00;;;;;;5097818;28;20105;-84
2021/06/28 07:22:45;;;;;;;0.20;0.20;;;21.60;1.00;;;;;;5096560;28;20035;-83
2021/06/28 07:25:13;;;;;;;0.20;0.20;;;21.60;1.00;;;;;;5096509;28;20032;-83
2021/06/28 07:27:40;;;;;;;0.20;0.20;;;25.20;1.00;;;;;;5097050;28;20032;-82
2021/06/28 07:30:09;;;;;;;0.20;0.20;;;27.70;1.00;;;;;;5096392;28;20514;-83
2021/06/28 07:32:35;;;;;;;0.15;0.15;;;27.10;1.00;;;;;;5097701;28;20032;-83
2021/06/28 07:35:02;;;;;;;0.20;0.20;;;26.90;1.00;;;;;;5096333;28;20062;-82
2021/06/28 07:37:28;;;;;;;0.10;0.10;;;28.70;1.00;;;;;;5097570;28;20039;-83
2021/06/28 07:39:54;;;;;;;0.20;0.20;;;30.20;1.00;;;;;;5096014;28;20131;-83
2021/06/28 07:42:20;;;;;;;0.20;0.20;;;28.20;1.00;;;;;;5096184;28;20471;-83
2021/06/28 07:44:46;;;;;;;0.20;0.20;;;26.80;1.00;;;;;;5095805;28;20083;-83
2021/06/28 07:47:12;;;;;;;0.10;0.10;;;25.50;1.00;;;;;;5096078;28;20036;-83
2021/06/28 07:49:38;;;;;;;0.10;0.10;;;26.50;1.00;;;;;;5095850;28;20066;-83
2021/06/28 07:52:04;;;;;;;0.20;0.20;;;26.00;1.00;;;;;;5097328;28;20128;-83
2021/06/28 07:54:30;;;;;;;0.10;0.10;;;25.30;1.00;;;;;;5096954;28;20040;-83
2021/06/28 07:56:56;;;;;;;0.10;0.10;;;24.30;1.00;;;;;;5116966;28;20028;-83
2021/06/28 07:59:22;;;;;;;0.10;0.10;;;24.10;1.00;;;;;;5098355;28;20056;-83
2021/06/28 08:01:48;;;;;;;0.10;0.10;;;24.10;1.00;;;;;;5092398;28;20036;-82
2021/06/28 08:04:14;;;;;;;0.17;0.17;;;23.90;1.00;;;;;;5103830;28;20039;-84
2021/06/28 08:06:41;;;;;;;0.10;0.10;;;24.20;1.00;;;;;;5078247;28;20177;-84
2021/06/28 08:09:07;;;;;;;0.10;0.10;;;24.00;1.00;;;;;;5078171;28;20076;-84
2021/06/28 08:11:33;;;;;;;0.10;0.10;;;23.90;1.00;;;;;;5096326;28;20134;-82
2021/06/28 08:14:00;;;;;;;0.10;0.10;;;23.90;1.00;;;;;;5079990;28;20360;-83
2021/06/28 08:16:26;;;;;;;0.13;0.13;;;23.60;1.00;;;;;;5078316;28;20551;-83
2021/06/28 08:18:53;;;;;;;0.10;0.10;;;23.50;1.00;;;;;;5077821;28;20028;-82
2021/06/28 08:21:20;;;;;;;0.10;0.10;;;23.50;1.00;;;;;;5078053;28;20047;-82
2021/06/28 08:23:47;;;;;;;0.10;0.10;;;23.30;1.00;;;;;;5077829;28;20050;-82
2021/06/28 08:26:13;;;;;;;0.10;0.10;;;23.50;1.00;;;;;;5077715;28;20035;-82
2021/06/28 08:28:39;;;;;;;0.10;0.10;;;23.30;1.00;;;;;;5077652;28;20043;-84
2021/06/28 08:31:05;;;;;;;0.20;0.20;;;23.10;1.00;;;;;;5095399;28;20568;-82
2021/06/28 08:33:32;;;;;;;0.10;0.10;;;23.10;1.00;;;;;;5077465;28;20042;-82
2021/06/28 08:36:02;;;;;;;0.10;0.10;;;23.00;1.00;;;;;;5077548;28;20043;-82
2021/06/28 08:38:28;;;;;;;0.10;0.10;;;22.90;1.00;;;;;;5077822;28;20034;-82
2021/06/28 08:40:54;;;;;;;0.10;0.10;;;22.50;1.00;;;;;;5077712;28;20118;-79
2021/06/28 08:43:20;;;;;;;0.10;0.10;;;22.40;1.00;;;;;;5077350;28;20597;-82
2021/06/28 08:45:46;;;;;;;0.10;0.10;;;22.60;1.00;;;;;;5095491;28;20099;-82
2021/06/28 08:48:12;;;;;;;0.10;0.10;;;23.10;1.00;;;;;;5095469;28;20112;-82
2021/06/28 08:50:40;;;;;;;0.10;0.10;;;23.30;1.00;;;;;;5095296;28;20036;-81
2021/06/28 08:53:08;;;;;;;0.10;0.10;;;23.50;1.00;;;;;;5077226;28;20036;-81
2021/06/28 08:55:34;;;;;;;0.40;0.40;;;23.80;1.00;;;;;;5095674;28;20522;-82
2021/06/28 08:58:05;;;;;;;0.10;0.10;;;23.90;1.00;;;;;;5077444;28;20036;-82
2021/06/28 09:00:31;;;;;;;0.10;0.10;;;23.90;1.00;;;;;;5060943;28;20087;-82
2021/06/28 09:03:02;;;;;;;0.10;0.10;;;23.90;1.00;;;;;;5055357;28;20033;-81
2021/06/28 09:05:28;;;;;;;;;;;24.20;1.00;;;;;;5055383;28;20045;-82
2021/06/28 09:08:11;;;;;;;0.10;0.10;;;24.80;1.00;;;;;;5060988;28;19916;-82
2021/06/28 09:10:40;;;;;;;0.10;0.10;;;24.50;1.00;;;;;;5075744;28;20040;-82
2021/06/28 09:13:06;;;;;;;0.25;0.20;;;24.30;1.00;;;;;;5074543;28;20044;-82
2021/06/28 09:15:38;;;;;;;0.10;0.10;;;24.80;1.00;;;;;;5075173;28;20040;-82
2021/06/28 09:18:26;;;;;;;0.10;0.10;;;25.20;1.00;;;;;;5075244;28;20040;-82
2021/06/28 09:21:08;;;;;;;0.10;0.10;;;25.30;1.00;;;;;;5074930;28;20043;-82
2021/06/28 09:23:38;;;;;;;0.20;0.20;;;25.00;1.00;;;;;;5074908;28;20036;-82
2021/06/28 09:26:11;;;;;;;0.10;0.10;;;24.60;1.00;;;;;;5074411;28;20032;-81
2021/06/28 09:28:43;;;;;;;0.10;0.10;;;24.30;1.00;;;;;;5073441;28;20063;-82
2021/06/28 09:31:16;;;;;;;0.10;0.10;;;24.00;1.00;;;;;;5073183;28;20068;-82
2021/06/28 09:33:42;;;;;;;0.22;0.22;;;23.70;1.00;;;;;;5074082;28;20048;-81
2021/06/28 09:36:22;;;;;;;0.20;0.20;;;23.40;1.00;;;;;;5074692;28;20545;-82
2021/06/28 09:38:47;;;;;;;0.10;0.10;;;23.20;1.00;;;;;;5074221;28;20044;-82
2021/06/28 09:41:31;;;;;;;0.10;0.10;;;23.30;1.00;;;;;;5072146;28;20085;-82
2021/06/28 09:44:07;;;;;;;0.20;0.20;;;23.30;1.00;;;;;;5074080;28;20047;-81
2021/06/28 09:46:35;;;;;;;1.23;0.85;;;23.10;1.00;;;;;;5073239;28;20032;-81
2021/06/28 09:49:02;;;;;;;0.28;0.28;;;23.30;1.00;;;;;;5074591;28;20400;-82
2021/06/28 09:51:37;;;;;;;0.10;0.10;;;22.90;1.00;;;;;;5056401;28;20547;-81
2021/06/28 09:54:05;;;;;;;0.10;0.10;;;22.90;1.00;;;;;;5074281;28;20040;-81
2021/06/28 09:56:34;;;;;;;0.13;0.13;;;23.00;1.00;;;;;;5072913;28;20036;-83
2021/06/28 09:59:23;;;;;;;0.10;0.10;;;23.10;1.00;;;;;;5073798;28;20043;-82
2021/06/28 10:01:52;;;;;;;0.55;0.52;;;23.10;1.00;;;;;;5083160;28;20478;-83
2021/06/28 10:04:43;;;;;;;0.95;0.30;;;23.10;1.00;;;;;;5114798;28;20043;-81
2021/06/28 10:07:43;;;;;;;0.20;0.20;;;23.30;1.00;;;;;;5097113;28;20045;-82
2021/06/28 10:10:22;;;;;;;0.20;0.20;;;23.20;1.00;;;;;;5109421;28;20177;-83
2021/06/28 10:13:09;;;;;;;0.30;0.30;;;23.20;1.00;;;;;;5115188;28;20119;-82
2021/06/28 10:15:39;;;;;;;0.10;0.10;;;23.10;1.00;;;;;;5095977;28;20039;-82
2021/06/28 10:18:06;;;;;;;0.20;0.20;;;23.10;1.00;;;;;;5097243;28;20035;-82
2021/06/28 10:20:40;;;;;;;0.10;0.10;;;22.70;1.00;;;;;;5118843;28;20758;-82
2021/06/28 10:23:08;;;;;;;0.28;0.28;;;22.70;1.00;;;;;;5100566;28;20077;-77
2021/06/28 10:25:35;;;;;;;1.45;0.35;;;22.70;1.00;;;;;;5118693;28;20126;-78
2021/06/28 10:28:04;;;;;;;0.60;0.60;;;22.50;1.00;;;;;;5100381;28;20045;-78
2021/06/28 10:30:31;;;;;;;0.75;0.50;;;22.50;1.00;;;;;;5118944;28;20052;-78
2021/06/28 10:33:08;;;;;;;0.10;0.10;;;22.40;1.00;;;;;;5093664;28;20038;-76
2021/06/28 10:35:37;;;;;;;0.10;0.10;;;22.20;1.00;;;;;;5105510;27;20040;-78
2021/06/28 10:38:12;;;;;;;0.43;0.43;;;21.90;1.00;;;;;;5096993;28;20044;-78
2021/06/28 10:40:53;;;;;;;0.28;0.28;;;22.10;1.00;;;;;;5080010;28;20478;-77
2021/06/28 10:43:34;;;;;;;0.25;0.25;;;21.80;1.00;;;;;;5097272;28;20039;-76
2021/06/28 10:46:01;;;;;;;;;;;21.70;1.00;;;;;;5097493;28;20044;-76
2021/06/28 10:48:29;;;;;;;0.30;0.30;;;21.70;1.00;;;;;;5106716;28;19947;-77
2021/06/28 10:51:02;;;;;;;0.17;0.17;;;21.60;1.00;;;;;;5117830;28;20063;-79
2021/06/28 10:53:33;;;;;;;0.10;0.10;;;21.50;1.00;;;;;;5099534;28;20127;-79
2021/06/28 10:56:30;;;;;;;0.20;0.20;;;21.50;1.00;;;;;;5099627;28;20387;-79
2021/06/28 10:58:59;;;;;;;0.20;0.20;;;21.50;1.00;;;;;;5115558;28;20470;-82
2021/06/28 11:02:10;;;;;;;0.25;0.25;;;21.40;1.00;;;;;;5116965;28;20040;-79
2021/06/28 11:04:54;;;;;;;0.20;0.20;;;21.30;1.00;;;;;;5014636;28;20092;-81
2021/06/28 11:07:20;;;;;;;0.20;0.20;;;21.30;1.00;;;;;;5014757;28;20509;-82
2021/06/28 11:09:53;;;;;;;0.30;0.30;;;21.20;1.00;;;;;;5062050;28;20043;-82
2021/06/28 11:12:22;;;;;;;0.20;0.20;;;21.40;1.00;;;;;;5098728;28;20061;-81
2021/06/28 11:14:48;;;;;;;0.20;0.20;;;21.60;1.00;;;;;;5118215;28;20038;-82
2021/06/28 11:17:20;;;;;;;0.65;0.25;;;21.50;1.00;;;;;;5117437;28;20096;-82
2021/06/28 11:19:58;;;;;;;0.30;0.30;;;21.30;1.00;;;;;;5117878;28;20108;-82
2021/06/28 11:22:52;;;;;;;0.10;0.10;;;21.50;1.00;;;;;;5118224;28;20035;-82
2021/06/28 11:25:51;;;;;;;0.38;0.38;;;21.60;1.00;;;;;;5118081;28;20043;-82
2021/06/28 11:28:18;;;;;;;0.10;0.10;;;21.70;1.00;;;;;;5098620;28;20111;-82
2021/06/28 11:31:06;;;;;;;0.10;0.10;;;21.90;1.00;;;;;;5116523;28;20135;-81
2021/06/28 11:33:50;;;;;;;0.20;0.20;;;22.30;1.00;;;;;;5090613;28;20031;-82
2021/06/28 11:36:35;;;;;;;0.30;0.30;;;22.60;1.00;;;;;;5097587;28;20036;-82
2021/06/28 11:39:12;;;;;;;0.20;0.20;;;22.80;1.00;;;;;;5097384;28;20038;-82
2021/06/28 11:41:38;;;;;;;0.20;0.20;;;22.80;1.00;;;;;;5096654;28;20047;-82
2021/06/28 11:44:05;;;;;;;0.20;0.20;;;22.50;1.00;;;;;;5113918;28;20417;-82
2021/06/28 11:46:31;;;;;;;0.45;0.45;;;22.30;1.00;;;;;;5090764;28;20040;-80
2021/06/28 11:49:02;;;;;;;0.10;0.10;;;22.30;1.00;;;;;;5096983;28;20031;-81
2021/06/28 11:51:34;;;;;;;0.52;0.52;;;22.20;1.00;;;;;;5115880;28;20078;-82
2021/06/28 11:54:04;;;;;;;0.10;0.10;;;22.60;1.00;;;;;;5116619;28;20091;-82
2021/06/28 11:56:38;;;;;;;0.20;0.20;;;22.80;1.00;;;;;;5097824;28;20035;-82
2021/06/28 11:59:12;;;;;;;0.40;0.38;;;22.90;1.00;;;;;;5115975;28;20035;-81
2021/06/28 12:01:42;;;;;;;0.10;0.10;;;22.20;1.00;;;;;;5116402;28;20035;-81
2021/06/28 12:04:16;;;;;;;0.20;0.20;;;22.00;1.00;;;;;;5096980;28;20039;-81
2021/06/28 12:06:43;;;;;;;0.10;0.10;;;22.30;1.00;;;;;;5114985;28;20038;-81
2021/06/28 12:09:18;;;;;;;0.47;0.25;;;22.30;1.00;;;;;;5114424;28;20043;-80
2021/06/28 12:12:12;;;;;;;0.10;0.10;;;22.40;1.00;;;;;;5113812;28;20043;-80
2021/06/28 12:14:43;;;;;;;0.55;0.20;;;22.20;1.00;;;;;;5114551;28;20096;-81
2021/06/28 12:17:14;;;;;;;0.10;0.10;;;22.30;1.00;;;;;;5114167;28;20131;-80
2021/06/28 12:19:45;;;;;;;0.10;0.10;;;22.40;1.00;;;;;;5114009;28;20036;-81
2021/06/28 12:22:19;;;;;;;0.10;0.10;;;22.40;1.00;;;;;;5095682;28;20035;-80
2021/06/28 12:24:49;;;;;;;0.30;0.30;;;22.50;1.00;;;;;;5114331;28;20039;-82
2021/06/28 12:27:18;;;;;;;0.20;0.20;;;22.30;1.00;;;;;;5108226;28;20044;-81
2021/06/28 12:29:50;;;;;;;0.20;0.20;;;22.20;1.00;;;;;;5093184;28;20522;-79
2021/06/28 12:32:24;;;;;;;0.13;0.13;;;22.00;1.00;;;;;;5089574;28;20081;-77
2021/06/28 12:34:55;;;;;;;0.10;0.10;;;22.20;1.00;;;;;;5101877;28;20043;-77
2021/06/28 12:37:31;;;;;;;0.20;0.20;;;22.10;1.00;;;;;;5092727;28;20114;-77
2021/06/28 12:40:29;;;;;;;0.30;0.30;;;22.20;1.00;;;;;;5094812;28;20115;-77
2021/06/28 12:43:07;;;;;;;0.40;0.40;;;22.30;1.00;;;;;;5105785;28;20043;-76
2021/06/28 12:45:36;;;;;;;0.15;0.15;;;22.10;1.00;;;;;;5112455;28;20039;-77
2021/06/28 12:48:05;;;;;;;0.20;0.20;;;22.10;1.00;;;;;;5113351;28;20069;-76
2021/06/28 12:50:36;;;;;;;0.10;0.10;;;22.10;1.00;;;;;;5113152;28;20054;-77
2021/06/28 12:53:14;;;;;;;0.43;0.38;;;21.70;1.00;;;;;;5094245;28;20092;-77
2021/06/28 12:55:42;;;;;;;0.20;0.20;;;21.60;1.00;;;;;;5113209;28;20040;-77
2021/06/28 12:58:10;;;;;;;0.15;0.15;;;21.60;1.00;;;;;;5114218;28;20035;-78
2021/06/28 13:00:39;;;;;;;0.20;0.20;;;21.60;1.00;;;;;;5112919;28;20052;-78
2021/06/28 13:03:13;;;;;;;0.90;0.50;;;21.70;1.00;;;;;;5112651;28;20036;-79
2021/06/28 13:05:45;;;;;;;0.10;0.10;;;21.60;1.00;;;;;;5114853;28;20039;-79
2021/06/28 13:08:24;;;;;;;0.65;0.65;;;21.50;1.00;;;;;;5111958;28;20538;-79